Time;durP1;ratioP1;P1;durP2;ratioP2;P2;SDS_P1;SDS_P2;PMS_P1;PMS_P2;Temp;Humidity;BMP_temperature;BMP_pressure;BME280_temperature;BME280_humidity;BME280_pressure;Samples;Min_cycle;Max_cycle;Signal;HPM_P1;HPM_P2
2023/08/11 00:02:06;;;;;;;7.80;7.20;;;;;;;;;;5012848;28;20892;-43
2023/08/11 00:04:35;;;;;;;8.17;7.63;;;;;;;;;;5013167;28;20441;-44
2023/08/11 00:07:03;;;;;;;8.10;7.40;;;;;;;;;;5013116;28;20815;-43
2023/08/11 00:09:30;;;;;;;8.90;7.60;;;;;;;;;;5012634;28;20484;-42
2023/08/11 00:11:58;;;;;;;7.57;6.90;;;;;;;;;;5012927;28;20886;-44
2023/08/11 00:14:26;;;;;;;8.60;7.90;;;;;;;;;;5013153;28;20819;-41
2023/08/11 00:16:56;;;;;;;7.77;7.47;;;;;;;;;;5012670;28;20448;-41
2023/08/11 00:19:23;;;;;;;8.73;8.10;;;;;;;;;;5012471;28;20461;-41
2023/08/11 00:21:51;;;;;;;8.33;7.63;;;;;;;;;;4964074;28;1408952;-41
2023/08/11 00:24:18;;;;;;;7.80;7.50;;;;;;;;;;5013749;28;20206;-46
2023/08/11 00:26:45;;;;;;;8.93;7.80;;;;;;;;;;5013614;28;20539;-40
2023/08/11 00:29:13;;;;;;;8.53;7.60;;;;;;;;;;5012944;28;20461;-39
2023/08/11 00:31:41;;;;;;;7.87;7.40;;;;;;;;;;5013562;28;20528;-43
2023/08/11 00:34:10;;;;;;;9.13;8.20;;;;;;;;;;5013708;28;20803;-41
2023/08/11 00:36:38;;;;;;;8.50;7.93;;;;;;;;;;5013625;28;20502;-44
2023/08/11 00:39:07;;;;;;;8.43;7.83;;;;;;;;;;5013005;28;20467;-42
2023/08/11 00:41:35;;;;;;;9.20;8.70;;;;;;;;;;5013188;28;20472;-45
2023/08/11 00:44:03;;;;;;;9.50;8.80;;;;;;;;;;5013210;28;20491;-45
2023/08/11 00:46:30;;;;;;;9.50;8.80;;;;;;;;;;5013076;28;20540;-43
2023/08/11 00:48:58;;;;;;;9.37;8.77;;;;;;;;;;5012627;28;20428;-41
2023/08/11 00:51:27;;;;;;;9.73;9.33;;;;;;;;;;5013292;28;20437;-41
2023/08/11 00:53:55;;;;;;;9.40;9.00;;;;;;;;;;5012317;28;20847;-41
2023/08/11 00:56:23;;;;;;;9.80;9.30;;;;;;;;;;5013197;28;20453;-41
2023/08/11 00:58:50;;;;;;;10.17;9.47;;;;;;;;;;5013277;28;20803;-41
2023/08/11 01:01:18;;;;;;;11.57;10.37;;;;;;;;;;5012858;28;20527;-41
2023/08/11 01:03:47;;;;;;;10.40;9.90;;;;;;;;;;5013163;28;20433;-43
2023/08/11 01:06:19;;;;;;;10.30;9.80;;;;;;;;;;5012671;28;20532;-42
2023/08/11 01:08:52;;;;;;;10.73;9.90;;;;;;;;;;5012918;28;20433;-42
2023/08/11 01:11:22;;;;;;;9.80;9.37;;;;;;;;;;5012618;28;20433;-41
2023/08/11 01:13:54;;;;;;;9.57;9.10;;;;;;;;;;5013040;28;20432;-42
2023/08/11 01:16:23;;;;;;;10.90;10.20;;;;;;;;;;5012634;28;20484;-42
2023/08/11 01:18:51;;;;;;;10.87;10.27;;;;;;;;;;5012196;28;20461;-41
2023/08/11 01:21:20;;;;;;;11.53;10.63;;;;;;;;;;5012592;28;20507;-41
2023/08/11 01:23:49;;;;;;;11.80;11.13;;;;;;;;;;5012461;28;20444;-41
2023/08/11 01:26:16;;;;;;;11.20;10.63;;;;;;;;;;5012635;28;20544;-41
2023/08/11 01:28:44;;;;;;;11.50;11.00;;;;;;;;;;5012417;28;20524;-43
2023/08/11 01:31:11;;;;;;;11.70;11.00;;;;;;;;;;5011957;28;20465;-44
2023/08/11 01:33:39;;;;;;;12.60;11.30;;;;;;;;;;5012336;28;20484;-43
2023/08/11 01:36:08;;;;;;;12.30;11.70;;;;;;;;;;5012165;28;20990;-42
2023/08/11 01:38:35;;;;;;;12.23;11.53;;;;;;;;;;5012495;28;20516;-40
2023/08/11 01:41:04;;;;;;;12.90;12.17;;;;;;;;;;5011809;28;20473;-42
2023/08/11 01:43:32;;;;;;;12.37;11.77;;;;;;;;;;5011995;28;20993;-40
2023/08/11 01:45:59;;;;;;;12.87;12.33;;;;;;;;;;5012443;28;20568;-43
2023/08/11 01:48:27;;;;;;;12.33;11.67;;;;;;;;;;5012151;28;20468;-42
2023/08/11 01:50:54;;;;;;;13.20;12.50;;;;;;;;;;5011717;28;20481;-41
2023/08/11 01:53:22;;;;;;;13.63;13.03;;;;;;;;;;5012071;28;20536;-43
2023/08/11 01:55:50;;;;;;;14.30;13.60;;;;;;;;;;5012025;28;20971;-41
2023/08/11 01:58:19;;;;;;;13.33;12.83;;;;;;;;;;5011983;28;20465;-42
2023/08/11 02:00:47;;;;;;;14.40;13.60;;;;;;;;;;5011516;28;20556;-44
2023/08/11 02:03:14;;;;;;;12.77;12.27;;;;;;;;;;5011647;28;20536;-44
2023/08/11 02:05:42;;;;;;;15.50;14.30;;;;;;;;;;5011868;28;20516;-41
2023/08/11 02:08:11;;;;;;;14.63;13.93;;;;;;;;;;5011839;28;20500;-41
2023/08/11 02:10:38;;;;;;;14.00;13.30;;;;;;;;;;5011500;28;20999;-41
2023/08/11 02:13:06;;;;;;;15.63;14.47;;;;;;;;;;5011727;28;20456;-42
2023/08/11 02:15:34;;;;;;;15.27;14.33;;;;;;;;;;5011667;28;20457;-41
2023/08/11 02:18:02;;;;;;;15.77;14.70;;;;;;;;;;5011650;28;20439;-41
2023/08/11 02:20:30;;;;;;;13.87;13.20;;;;;;;;;;5011145;28;21082;-41
2023/08/11 02:22:58;;;;;;;16.00;14.70;;;;;;;;;;5010767;28;20453;-42
2023/08/11 02:25:26;;;;;;;19.17;16.70;;;;;;;;;;5011553;28;20865;-41
2023/08/11 02:27:53;;;;;;;14.80;14.07;;;;;;;;;;5011604;28;20479;-43
2023/08/11 02:30:22;;;;;;;14.63;13.77;;;;;;;;;;5011269;28;20461;-42
2023/08/11 02:32:51;;;;;;;15.03;14.23;;;;;;;;;;5011894;28;20447;-43
2023/08/11 02:35:19;;;;;;;14.63;13.93;;;;;;;;;;5011688;28;20441;-46
2023/08/11 02:37:46;;;;;;;15.60;14.60;;;;;;;;;;5011693;28;20437;-43
2023/08/11 02:40:14;;;;;;;16.00;14.67;;;;;;;;;;5011191;28;20515;-43
2023/08/11 02:42:44;;;;;;;15.00;14.30;;;;;;;;;;5011101;28;20840;-41
2023/08/11 02:45:12;;;;;;;16.40;15.43;;;;;;;;;;5011600;28;20526;-41
2023/08/11 02:47:40;;;;;;;15.07;14.27;;;;;;;;;;5011435;28;20440;-42
2023/08/11 02:50:09;;;;;;;15.70;14.63;;;;;;;;;;5010996;28;21018;-43
2023/08/11 02:52:37;;;;;;;17.47;16.57;;;;;;;;;;5011615;28;20796;-41
2023/08/11 02:55:06;;;;;;;16.90;15.90;;;;;;;;;;5011412;28;20437;-39
2023/08/11 02:57:33;;;;;;;16.37;15.57;;;;;;;;;;5011692;28;20436;-43
2023/08/11 03:00:01;;;;;;;17.07;16.00;;;;;;;;;;5011126;28;20548;-42
2023/08/11 03:02:28;;;;;;;16.70;15.90;;;;;;;;;;5011054;28;20559;-41
2023/08/11 03:04:56;;;;;;;16.73;15.80;;;;;;;;;;5011762;28;20959;-46
2023/08/11 03:07:25;;;;;;;16.97;16.00;;;;;;;;;;5010980;28;20970;-41
2023/08/11 03:09:53;;;;;;;17.80;16.73;;;;;;;;;;5010893;28;20519;-40
2023/08/11 03:12:21;;;;;;;18.80;17.40;;;;;;;;;;5011103;28;20448;-42
2023/08/11 03:14:48;;;;;;;18.10;16.67;;;;;;;;;;5011530;28;20429;-44
2023/08/11 03:17:15;;;;;;;18.70;17.70;;;;;;;;;;5014164;28;20463;-41
2023/08/11 03:19:43;;;;;;;17.07;16.17;;;;;;;;;;5014639;28;20465;-40
2023/08/11 03:22:10;;;;;;;17.90;16.80;;;;;;;;;;5014290;28;20504;-40
2023/08/11 03:24:39;;;;;;;17.83;16.93;;;;;;;;;;5014966;28;20854;-41
2023/08/11 03:27:08;;;;;;;17.93;16.93;;;;;;;;;;5014632;28;20457;-41
2023/08/11 03:29:35;;;;;;;17.90;17.00;;;;;;;;;;5014525;28;20460;-43
2023/08/11 03:32:03;;;;;;;17.67;16.73;;;;;;;;;;5015010;28;20496;-42
2023/08/11 03:34:30;;;;;;;17.43;16.33;;;;;;;;;;5014441;28;20436;-41
2023/08/11 03:36:58;;;;;;;19.17;18.03;;;;;;;;;;5014405;28;20560;-43
2023/08/11 03:39:25;;;;;;;18.93;17.90;;;;;;;;;;5014175;28;20544;-41
2023/08/11 03:41:54;;;;;;;18.00;17.07;;;;;;;;;;5014582;28;20473;-45
2023/08/11 03:44:22;;;;;;;19.43;18.00;;;;;;;;;;5014468;28;20806;-41
2023/08/11 03:46:50;;;;;;;20.77;19.37;;;;;;;;;;5014277;28;20507;-41
2023/08/11 03:49:17;;;;;;;19.60;18.23;;;;;;;;;;5013903;28;20457;-41
2023/08/11 03:51:45;;;;;;;20.30;19.00;;;;;;;;;;5014276;28;20421;-43
2023/08/11 03:54:13;;;;;;;20.40;18.87;;;;;;;;;;5014202;28;21047;-41
2023/08/11 03:56:40;;;;;;;20.70;19.50;;;;;;;;;;5014231;28;20453;-41
2023/08/11 03:59:09;;;;;;;19.53;18.50;;;;;;;;;;5014241;28;20744;-42
2023/08/11 04:01:36;;;;;;;20.40;18.87;;;;;;;;;;5013907;28;20473;-42
2023/08/11 04:04:04;;;;;;;20.63;19.20;;;;;;;;;;5013880;28;20483;-41
2023/08/11 04:06:33;;;;;;;19.80;18.90;;;;;;;;;;5013943;28;20536;-41
2023/08/11 04:09:00;;;;;;;21.03;19.40;;;;;;;;;;5013737;28;20429;-41
2023/08/11 04:11:28;;;;;;;20.87;19.57;;;;;;;;;;5013835;28;20456;-43
2023/08/11 04:13:56;;;;;;;21.90;20.63;;;;;;;;;;5014017;28;20491;-41
2023/08/11 04:16:24;;;;;;;20.97;19.60;;;;;;;;;;5014002;28;20515;-41
2023/08/11 04:18:52;;;;;;;22.17;20.67;;;;;;;;;;5013572;28;20436;-43
2023/08/11 04:21:20;;;;;;;20.80;19.60;;;;;;;;;;5013586;28;20437;-41
2023/08/11 04:23:48;;;;;;;20.40;19.30;;;;;;;;;;5013664;28;20450;-41
2023/08/11 04:26:15;;;;;;;21.27;20.07;;;;;;;;;;5013552;28;20464;-42
2023/08/11 04:28:43;;;;;;;20.33;19.13;;;;;;;;;;5012298;28;20480;-44
2023/08/11 04:31:11;;;;;;;19.60;18.50;;;;;;;;;;5012927;28;20476;-41
2023/08/11 04:33:41;;;;;;;20.00;18.80;;;;;;;;;;5013532;28;20433;-44
2023/08/11 04:36:08;;;;;;;20.00;18.90;;;;;;;;;;5013374;28;20484;-42
2023/08/11 04:38:36;;;;;;;19.63;18.50;;;;;;;;;;5013864;28;20776;-41
2023/08/11 04:41:03;;;;;;;20.43;18.80;;;;;;;;;;5013077;28;20488;-41
2023/08/11 04:43:31;;;;;;;19.47;18.30;;;;;;;;;;5013059;28;20468;-41
2023/08/11 04:45:58;;;;;;;20.40;19.00;;;;;;;;;;5013341;28;20540;-41
2023/08/11 04:48:26;;;;;;;19.93;18.50;;;;;;;;;;5013231;28;20441;-41
2023/08/11 04:50:56;;;;;;;18.87;17.80;;;;;;;;;;5012997;28;20471;-41
2023/08/11 04:53:24;;;;;;;19.17;17.97;;;;;;;;;;5013011;28;20437;-42
2023/08/11 04:55:52;;;;;;;20.97;19.07;;;;;;;;;;5013004;28;20493;-42
2023/08/11 04:58:19;;;;;;;20.87;19.57;;;;;;;;;;5013294;28;20445;-42
2023/08/11 05:00:47;;;;;;;20.50;19.30;;;;;;;;;;5012705;28;21160;-42
2023/08/11 05:03:15;;;;;;;21.17;19.60;;;;;;;;;;5012832;28;20487;-41
2023/08/11 05:05:44;;;;;;;19.53;18.10;;;;;;;;;;5012654;28;20548;-43
2023/08/11 05:08:14;;;;;;;18.93;17.93;;;;;;;;;;5012651;28;20441;-42
2023/08/11 05:10:42;;;;;;;20.67;19.20;;;;;;;;;;5012453;28;20535;-41
2023/08/11 05:13:09;;;;;;;19.33;18.20;;;;;;;;;;5012851;28;20461;-44
2023/08/11 05:15:37;;;;;;;19.57;18.37;;;;;;;;;;5012797;28;20485;-43
2023/08/11 05:18:05;;;;;;;18.70;17.70;;;;;;;;;;5012738;28;20437;-41
2023/08/11 05:20:32;;;;;;;18.80;17.70;;;;;;;;;;5012283;28;20469;-43
2023/08/11 05:23:00;;;;;;;19.27;18.23;;;;;;;;;;5012191;28;21003;-41
2023/08/11 05:25:29;;;;;;;18.03;17.07;;;;;;;;;;5012437;28;20453;-41
2023/08/11 05:27:56;;;;;;;17.43;16.47;;;;;;;;;;5012693;28;20528;-41
2023/08/11 05:30:25;;;;;;;18.93;17.70;;;;;;;;;;5012000;28;20465;-41
2023/08/11 05:32:52;;;;;;;18.80;17.70;;;;;;;;;;5012326;28;20429;-43
2023/08/11 05:35:20;;;;;;;18.23;17.03;;;;;;;;;;5012309;28;20440;-43
2023/08/11 05:37:48;;;;;;;19.70;18.60;;;;;;;;;;5012477;28;20433;-43
2023/08/11 05:40:16;;;;;;;18.00;17.00;;;;;;;;;;5011827;28;20507;-41
2023/08/11 05:42:45;;;;;;;17.33;16.53;;;;;;;;;;5012083;28;20496;-43
2023/08/11 05:45:12;;;;;;;17.70;16.57;;;;;;;;;;5012219;28;20455;-41
2023/08/11 05:47:44;;;;;;;18.73;17.50;;;;;;;;;;5012150;28;20951;-41
2023/08/11 05:50:11;;;;;;;17.83;16.93;;;;;;;;;;5011697;28;20483;-44
2023/08/11 05:52:39;;;;;;;18.30;16.80;;;;;;;;;;5012111;28;20449;-42
2023/08/11 05:55:06;;;;;;;17.90;16.80;;;;;;;;;;5012192;28;20507;-44
2023/08/11 05:57:34;;;;;;;16.23;15.13;;;;;;;;;;5012151;28;20465;-42
2023/08/11 06:00:04;;;;;;;16.10;15.20;;;;;;;;;;5011839;28;20997;-42
2023/08/11 06:02:31;;;;;;;16.53;15.63;;;;;;;;;;5011670;28;20591;-41
2023/08/11 06:04:59;;;;;;;17.30;16.50;;;;;;;;;;5011978;28;20537;-42
2023/08/11 06:07:26;;;;;;;16.67;15.77;;;;;;;;;;5012070;28;20907;-44
2023/08/11 06:09:54;;;;;;;16.43;15.50;;;;;;;;;;5011607;28;20490;-41
2023/08/11 06:12:21;;;;;;;15.50;14.67;;;;;;;;;;5011708;28;20491;-41
2023/08/11 06:14:49;;;;;;;15.73;14.30;;;;;;;;;;5011911;28;20433;-42
2023/08/11 06:17:17;;;;;;;13.67;13.07;;;;;;;;;;5011709;28;20461;-42
2023/08/11 06:19:45;;;;;;;13.83;12.93;;;;;;;;;;5011567;28;20460;-42
2023/08/11 06:22:12;;;;;;;13.53;12.53;;;;;;;;;;5011539;28;20476;-42
2023/08/11 06:24:40;;;;;;;13.80;12.70;;;;;;;;;;5011647;28;20555;-41
2023/08/11 06:27:09;;;;;;;12.47;11.50;;;;;;;;;;5011738;28;20535;-42
2023/08/11 06:29:37;;;;;;;11.90;11.20;;;;;;;;;;5011430;28;20468;-41
2023/08/11 06:32:05;;;;;;;12.50;11.30;;;;;;;;;;5011819;28;20440;-41
2023/08/11 06:34:33;;;;;;;13.23;12.33;;;;;;;;;;5011606;28;20950;-41
2023/08/11 06:37:01;;;;;;;12.33;11.37;;;;;;;;;;5011753;28;20859;-41
2023/08/11 06:39:28;;;;;;;12.33;11.20;;;;;;;;;;5010999;28;20591;-43
2023/08/11 06:41:56;;;;;;;12.17;11.10;;;;;;;;;;5011493;28;20433;-43
2023/08/11 06:44:23;;;;;;;10.93;10.23;;;;;;;;;;5011501;28;20469;-42
2023/08/11 06:46:51;;;;;;;11.33;10.43;;;;;;;;;;5011785;28;20452;-41
2023/08/11 06:49:19;;;;;;;11.00;10.30;;;;;;;;;;5011351;28;20878;-44
2023/08/11 06:51:48;;;;;;;12.20;11.60;;;;;;;;;;5014132;28;20440;-41
2023/08/11 06:54:16;;;;;;;11.80;11.10;;;;;;;;;;5015389;28;20472;-43
2023/08/11 06:56:43;;;;;;;12.73;11.27;;;;;;;;;;5015255;28;20467;-43
2023/08/11 06:59:11;;;;;;;11.63;10.77;;;;;;;;;;5015055;28;20881;-41
2023/08/11 07:01:38;;;;;;;11.23;10.40;;;;;;;;;;5015121;28;20464;-45
2023/08/11 07:04:07;;;;;;;10.80;10.30;;;;;;;;;;5015181;28;20512;-45
2023/08/11 07:06:34;;;;;;;11.57;10.97;;;;;;;;;;5015203;28;20448;-42
2023/08/11 07:09:03;;;;;;;10.50;9.97;;;;;;;;;;5014779;28;20459;-43
2023/08/11 07:11:31;;;;;;;11.20;10.57;;;;;;;;;;5014733;28;20944;-42
2023/08/11 07:13:58;;;;;;;12.17;11.57;;;;;;;;;;5015073;28;20468;-44
2023/08/11 07:16:26;;;;;;;11.27;10.37;;;;;;;;;;5015155;28;20460;-42
2023/08/11 07:18:53;;;;;;;10.87;10.30;;;;;;;;;;5014432;28;20436;-43
2023/08/11 07:21:21;;;;;;;11.33;10.53;;;;;;;;;;5013929;28;20943;-43
2023/08/11 07:23:48;;;;;;;12.40;11.20;;;;;;;;;;5014305;28;20476;-44
2023/08/11 07:26:17;;;;;;;10.87;10.17;;;;;;;;;;5014526;28;20456;-45
2023/08/11 07:28:45;;;;;;;11.67;10.73;;;;;;;;;;5014518;28;20475;-42
2023/08/11 07:31:12;;;;;;;11.23;10.60;;;;;;;;;;5013630;28;20475;-41
2023/08/11 07:33:42;;;;;;;10.07;9.57;;;;;;;;;;5014060;28;20844;-42
2023/08/11 07:36:10;;;;;;;10.90;10.20;;;;;;;;;;5013911;28;20461;-42
2023/08/11 07:38:37;;;;;;;11.53;10.83;;;;;;;;;;5014053;28;20436;-42
2023/08/11 07:41:05;;;;;;;11.43;10.60;;;;;;;;;;5013562;28;21022;-44
2023/08/11 07:43:34;;;;;;;11.57;10.43;;;;;;;;;;5014040;28;20523;-42
2023/08/11 07:46:01;;;;;;;11.73;10.10;;;;;;;;;;5014138;28;20531;-43
2023/08/11 07:48:29;;;;;;;12.30;11.47;;;;;;;;;;5013827;28;20437;-42
2023/08/11 07:50:56;;;;;;;11.00;10.10;;;;;;;;;;5013324;28;20464;-42
2023/08/11 07:53:24;;;;;;;11.87;10.80;;;;;;;;;;5014089;28;20899;-43
2023/08/11 07:55:51;;;;;;;11.90;10.87;;;;;;;;;;5013772;28;20484;-44
2023/08/11 07:58:19;;;;;;;10.63;10.03;;;;;;;;;;5013826;28;20441;-42
2023/08/11 08:00:48;;;;;;;10.07;9.40;;;;;;;;;;5013163;28;20456;-42
2023/08/11 08:03:15;;;;;;;11.53;10.50;;;;;;;;;;5013155;28;20447;-42
2023/08/11 08:05:45;;;;;;;11.77;11.17;;;;;;;;;;5013299;28;21368;-42
2023/08/11 08:08:12;;;;;;;11.97;11.03;;;;;;;;;;5013426;28;20495;-42
2023/08/11 08:10:40;;;;;;;10.07;9.67;;;;;;;;;;5012949;28;20834;-43
2023/08/11 08:13:07;;;;;;;11.23;9.50;;;;;;;;;;5013435;28;20503;-41
2023/08/11 08:15:36;;;;;;;11.20;10.60;;;;;;;;;;5013619;28;20804;-42
2023/08/11 08:18:06;;;;;;;11.83;11.17;;;;;;;;;;5013192;28;20437;-45
2023/08/11 08:20:34;;;;;;;11.40;10.70;;;;;;;;;;5013007;28;20473;-40
2023/08/11 08:23:02;;;;;;;11.23;10.63;;;;;;;;;;5013309;28;20456;-43
2023/08/11 08:25:29;;;;;;;11.53;10.63;;;;;;;;;;5012958;28;20834;-43
2023/08/11 08:27:57;;;;;;;11.20;10.50;;;;;;;;;;5013115;28;20432;-42
2023/08/11 08:30:33;;;;;;;11.70;10.97;;;;;;;;;;5012794;28;20845;-43
2023/08/11 08:33:01;;;;;;;11.87;11.17;;;;;;;;;;5012903;28;20432;-42
2023/08/11 08:35:30;;;;;;;11.43;10.83;;;;;;;;;;5013128;28;20539;-43
2023/08/11 08:37:57;;;;;;;11.70;11.00;;;;;;;;;;5013277;28;20436;-42
2023/08/11 08:40:25;;;;;;;11.70;11.00;;;;;;;;;;5012505;28;21229;-43
2023/08/11 08:42:53;;;;;;;11.73;11.00;;;;;;;;;;5012743;28;20436;-43
2023/08/11 08:45:21;;;;;;;12.10;11.50;;;;;;;;;;5012521;28;20472;-42
2023/08/11 08:47:50;;;;;;;10.73;10.13;;;;;;;;;;5013125;28;20436;-42
2023/08/11 08:50:19;;;;;;;11.20;10.50;;;;;;;;;;5012591;28;20548;-42
2023/08/11 08:52:48;;;;;;;11.03;10.43;;;;;;;;;;5012540;28;20432;-42
2023/08/11 08:55:15;;;;;;;10.17;9.67;;;;;;;;;;5012663;28;20428;-43
2023/08/11 08:57:43;;;;;;;11.43;10.67;;;;;;;;;;5012656;28;20475;-43
2023/08/11 09:00:12;;;;;;;11.13;10.43;;;;;;;;;;5012235;28;20476;-42
2023/08/11 09:02:40;;;;;;;11.03;10.23;;;;;;;;;;5012376;28;20480;-43
2023/08/11 09:05:08;;;;;;;11.43;10.63;;;;;;;;;;5012203;28;20478;-42
2023/08/11 09:07:36;;;;;;;10.80;10.20;;;;;;;;;;5012593;28;20977;-42
2023/08/11 09:10:05;;;;;;;10.83;10.23;;;;;;;;;;5012096;28;20472;-43
2023/08/11 09:12:33;;;;;;;11.53;10.83;;;;;;;;;;5011883;28;20428;-44
2023/08/11 09:15:06;;;;;;;10.43;9.93;;;;;;;;;;5011731;28;20464;-43
2023/08/11 09:17:33;;;;;;;12.00;11.20;;;;;;;;;;5012509;28;20432;-42
2023/08/11 09:20:01;;;;;;;10.77;9.97;;;;;;;;;;5012021;28;20465;-46
2023/08/11 09:22:32;;;;;;;11.07;10.27;;;;;;;;;;5011741;28;20451;-42
2023/08/11 09:25:00;;;;;;;12.40;11.50;;;;;;;;;;5012444;28;20476;-42
2023/08/11 09:27:30;;;;;;;10.63;10.03;;;;;;;;;;5011983;28;20498;-43
2023/08/11 09:29:57;;;;;;;10.57;9.77;;;;;;;;;;5012211;28;20492;-43
2023/08/11 09:32:25;;;;;;;11.10;10.20;;;;;;;;;;5011657;28;20436;-41
2023/08/11 09:34:53;;;;;;;10.00;9.40;;;;;;;;;;5012219;28;20440;-43
2023/08/11 09:37:21;;;;;;;10.87;9.97;;;;;;;;;;5011918;28;20452;-42
2023/08/11 09:39:49;;;;;;;10.67;9.97;;;;;;;;;;5011697;28;20460;-42
2023/08/11 09:42:19;;;;;;;9.73;9.03;;;;;;;;;;5011954;28;20455;-43
2023/08/11 09:44:51;;;;;;;10.13;9.53;;;;;;;;;;5011858;28;20472;-43
2023/08/11 09:47:19;;;;;;;12.70;11.80;;;;;;;;;;5011813;28;20539;-43
2023/08/11 09:49:49;;;;;;;10.23;9.60;;;;;;;;;;5011291;28;20472;-42
2023/08/11 09:52:17;;;;;;;11.83;10.93;;;;;;;;;;5011952;28;20433;-45
2023/08/11 09:54:45;;;;;;;10.63;9.90;;;;;;;;;;5012072;28;20468;-42
2023/08/11 09:57:14;;;;;;;10.70;9.60;;;;;;;;;;5011681;28;20453;-42
2023/08/11 09:59:43;;;;;;;8.97;8.57;;;;;;;;;;5011218;28;20557;-45
2023/08/11 10:02:15;;;;;;;9.17;8.57;;;;;;;;;;5011317;28;20428;-45
2023/08/11 10:04:46;;;;;;;9.47;8.77;;;;;;;;;;5022044;28;20475;-45
2023/08/11 10:07:14;;;;;;;10.60;9.77;;;;;;;;;;5022287;28;20445;-43
2023/08/11 10:09:42;;;;;;;9.37;8.70;;;;;;;;;;5022357;28;20464;-44
2023/08/11 10:12:10;;;;;;;9.77;8.97;;;;;;;;;;5021552;28;20437;-43
2023/08/11 10:14:39;;;;;;;10.97;10.07;;;;;;;;;;5021543;28;20440;-45
2023/08/11 10:17:07;;;;;;;10.27;9.23;;;;;;;;;;5023022;28;20452;-44
2023/08/11 10:19:37;;;;;;;11.10;10.10;;;;;;;;;;5023429;28;20998;-43
2023/08/11 10:22:05;;;;;;;10.27;9.27;;;;;;;;;;5021906;28;20444;-47
2023/08/11 10:24:37;;;;;;;10.33;9.63;;;;;;;;;;5022342;28;20438;-46
2023/08/11 10:27:05;;;;;;;10.90;10.20;;;;;;;;;;5026675;28;20483;-46
2023/08/11 10:29:37;;;;;;;10.10;9.40;;;;;;;;;;5025492;28;20524;-43
2023/08/11 10:32:05;;;;;;;9.70;9.00;;;;;;;;;;5025751;28;20483;-45
2023/08/11 10:34:33;;;;;;;11.13;10.03;;;;;;;;;;5025957;28;20488;-46
2023/08/11 10:37:02;;;;;;;9.73;8.77;;;;;;;;;;5025587;28;20815;-42
2023/08/11 10:39:29;;;;;;;9.93;9.13;;;;;;;;;;5025271;28;20544;-44
2023/08/11 10:41:57;;;;;;;11.13;10.20;;;;;;;;;;5025819;28;20432;-45
2023/08/11 10:44:28;;;;;;;11.00;10.30;;;;;;;;;;5024941;28;20444;-48
2023/08/11 10:46:57;;;;;;;8.40;7.90;;;;;;;;;;5025261;28;20498;-42
2023/08/11 10:49:33;;;;;;;8.00;7.53;;;;;;;;;;5025546;28;20456;-44
2023/08/11 10:52:02;;;;;;;8.93;8.33;;;;;;;;;;5025116;28;20432;-45
2023/08/11 10:54:31;;;;;;;7.90;7.30;;;;;;;;;;5025657;28;20432;-43
2023/08/11 10:57:00;;;;;;;9.03;8.43;;;;;;;;;;5024659;28;20457;-48
2023/08/11 10:59:29;;;;;;;10.30;9.50;;;;;;;;;;5023778;28;20460;-45
2023/08/11 11:01:59;;;;;;;9.60;9.00;;;;;;;;;;5024097;28;20436;-42
2023/08/11 11:04:30;;;;;;;9.90;9.27;;;;;;;;;;5024564;28;20436;-45
2023/08/11 11:06:59;;;;;;;10.00;9.23;;;;;;;;;;5023476;28;20476;-46
2023/08/11 11:09:28;;;;;;;7.40;6.77;;;;;;;;;;5022728;28;20488;-44
2023/08/11 11:11:56;;;;;;;8.30;7.70;;;;;;;;;;5024184;28;20436;-41
2023/08/11 11:14:24;;;;;;;8.20;7.50;;;;;;;;;;5024661;28;20428;-44
2023/08/11 11:16:58;;;;;;;7.93;7.23;;;;;;;;;;5024540;28;20519;-44
2023/08/11 11:19:26;;;;;;;9.10;8.10;;;;;;;;;;5024345;28;20467;-47
2023/08/11 11:21:54;;;;;;;8.50;7.90;;;;;;;;;;5023088;28;20464;-46
2023/08/11 11:24:22;;;;;;;10.10;8.63;;;;;;;;;;5022800;28;20436;-43
2023/08/11 11:26:51;;;;;;;8.80;8.00;;;;;;;;;;5022284;28;20536;-45
2023/08/11 11:29:23;;;;;;;7.90;7.40;;;;;;;;;;5022493;28;20484;-44
2023/08/11 11:31:51;;;;;;;8.93;8.23;;;;;;;;;;5021949;28;20448;-43
2023/08/11 11:34:19;;;;;;;9.63;8.40;;;;;;;;;;5023206;28;20475;-47
2023/08/11 11:36:47;;;;;;;7.60;7.07;;;;;;;;;;5020139;28;20483;-42
2023/08/11 11:39:15;;;;;;;7.63;7.03;;;;;;;;;;5021259;28;20476;-42
2023/08/11 11:41:42;;;;;;;8.80;8.10;;;;;;;;;;5021514;28;20464;-46
2023/08/11 11:44:11;;;;;;;9.00;7.67;;;;;;;;;;5022239;28;20465;-46
2023/08/11 11:46:39;;;;;;;9.00;8.30;;;;;;;;;;5021856;28;20579;-44
2023/08/11 11:49:07;;;;;;;10.03;7.40;;;;;;;;;;5021749;28;20437;-44
2023/08/11 11:51:55;;;;;;;7.70;7.30;;;;;;;;;;5022300;28;20432;-47
2023/08/11 11:54:22;;;;;;;7.70;7.10;;;;;;;;;;5022212;28;20464;-46
2023/08/11 11:56:50;;;;;;;7.60;7.07;;;;;;;;;;5021931;28;20536;-48
2023/08/11 11:59:32;;;;;;;7.27;6.63;;;;;;;;;;5021923;28;20488;-41
2023/08/11 12:02:00;;;;;;;8.47;7.77;;;;;;;;;;5022574;28;20527;-43
2023/08/11 12:04:31;;;;;;;7.23;6.70;;;;;;;;;;5022100;28;20436;-48
2023/08/11 12:07:01;;;;;;;7.27;6.77;;;;;;;;;;5021914;28;20540;-48
2023/08/11 12:09:29;;;;;;;7.17;6.77;;;;;;;;;;5022031;28;20463;-46
2023/08/11 12:11:56;;;;;;;7.03;6.63;;;;;;;;;;5022119;28;21008;-43
2023/08/11 12:14:26;;;;;;;7.47;6.87;;;;;;;;;;5022401;28;20432;-42
2023/08/11 12:16:55;;;;;;;8.50;7.90;;;;;;;;;;5023233;28;20455;-46
2023/08/11 12:19:24;;;;;;;7.13;6.63;;;;;;;;;;5022239;28;20497;-44
2023/08/11 12:21:51;;;;;;;7.70;7.20;;;;;;;;;;5021735;28;20440;-43
2023/08/11 12:24:19;;;;;;;7.17;6.63;;;;;;;;;;5021605;28;20201;-44
2023/08/11 12:26:48;;;;;;;6.50;5.77;;;;;;;;;;5022719;28;20476;-46
2023/08/11 12:29:15;;;;;;;7.27;6.67;;;;;;;;;;5020655;28;20456;-41
2023/08/11 12:31:43;;;;;;;6.67;6.27;;;;;;;;;;5021811;28;20520;-43
2023/08/11 12:34:15;;;;;;;6.17;5.77;;;;;;;;;;5021938;28;20476;-46
2023/08/11 12:36:42;;;;;;;6.57;6.00;;;;;;;;;;5021176;28;20449;-43
2023/08/11 12:39:10;;;;;;;5.93;5.63;;;;;;;;;;5019996;28;20938;-46
2023/08/11 12:41:38;;;;;;;5.47;5.07;;;;;;;;;;5019508;28;20444;-43
2023/08/11 12:44:06;;;;;;;5.83;5.50;;;;;;;;;;5021031;28;20425;-45
2023/08/11 12:46:35;;;;;;;5.60;5.37;;;;;;;;;;5020635;28;20476;-48
2023/08/11 12:49:03;;;;;;;6.10;5.70;;;;;;;;;;5018640;28;20440;-42
2023/08/11 12:51:32;;;;;;;5.50;5.10;;;;;;;;;;5019686;28;20958;-46
2023/08/11 12:54:00;;;;;;;4.77;4.47;;;;;;;;;;5022300;28;21014;-45
2023/08/11 12:56:27;;;;;;;6.67;4.87;;;;;;;;;;5024273;28;20452;-42
2023/08/11 12:58:55;;;;;;;5.43;5.17;;;;;;;;;;5024781;28;20429;-43
2023/08/11 13:01:22;;;;;;;5.13;4.83;;;;;;;;;;5025518;28;20828;-41
2023/08/11 13:03:51;;;;;;;5.57;5.23;;;;;;;;;;5024732;28;20463;-44
2023/08/11 13:06:19;;;;;;;5.43;5.20;;;;;;;;;;5013672;28;20468;-45
2023/08/11 13:08:50;;;;;;;5.80;5.50;;;;;;;;;;5024294;28;20440;-43
2023/08/11 13:11:17;;;;;;;6.37;5.97;;;;;;;;;;5022261;28;20472;-44
2023/08/11 13:13:45;;;;;;;4.97;4.67;;;;;;;;;;5023296;28;20460;-44
2023/08/11 13:16:13;;;;;;;5.50;5.20;;;;;;;;;;5023736;28;20452;-41
2023/08/11 13:18:40;;;;;;;5.47;5.10;;;;;;;;;;5023865;28;20455;-41
2023/08/11 13:21:08;;;;;;;5.60;5.30;;;;;;;;;;5021677;28;20484;-43
2023/08/11 13:23:35;;;;;;;4.77;4.57;;;;;;;;;;5022316;28;20531;-43
2023/08/11 13:26:05;;;;;;;5.50;5.10;;;;;;;;;;5023815;28;20503;-43
2023/08/11 13:28:32;;;;;;;6.10;5.70;;;;;;;;;;5022188;28;20499;-47
2023/08/11 13:31:00;;;;;;;6.07;5.57;;;;;;;;;;5022816;28;20547;-44
2023/08/11 13:33:27;;;;;;;5.90;5.53;;;;;;;;;;5023257;28;20521;-47
2023/08/11 13:35:55;;;;;;;5.20;4.77;;;;;;;;;;5023316;28;20453;-44
2023/08/11 13:38:26;;;;;;;5.70;5.40;;;;;;;;;;5023673;28;20989;-41
2023/08/11 13:40:53;;;;;;;6.30;5.80;;;;;;;;;;5023028;28;20544;-45
2023/08/11 13:43:23;;;;;;;6.23;5.83;;;;;;;;;;5023593;28;20440;-42
2023/08/11 13:45:51;;;;;;;5.03;4.83;;;;;;;;;;5021957;28;20502;-42
2023/08/11 13:48:19;;;;;;;5.40;5.10;;;;;;;;;;5022621;28;20480;-42
2023/08/11 13:50:49;;;;;;;5.43;5.13;;;;;;;;;;5023457;28;20515;-43
2023/08/11 13:53:16;;;;;;;5.67;5.37;;;;;;;;;;5023586;28;20424;-46
2023/08/11 13:55:44;;;;;;;5.20;4.90;;;;;;;;;;5023099;28;20483;-42
2023/08/11 13:58:11;;;;;;;5.77;5.37;;;;;;;;;;5022096;28;20518;-42
2023/08/11 14:00:40;;;;;;;6.00;5.60;;;;;;;;;;5021426;28;20522;-42
2023/08/11 14:03:08;;;;;;;5.13;4.83;;;;;;;;;;5022790;28;20425;-44
2023/08/11 14:05:35;;;;;;;5.10;4.90;;;;;;;;;;5023206;28;20476;-46
2023/08/11 14:08:03;;;;;;;5.13;4.83;;;;;;;;;;5022443;28;20464;-42
2023/08/11 14:10:30;;;;;;;5.37;5.07;;;;;;;;;;5021979;28;20465;-47
2023/08/11 14:12:58;;;;;;;6.23;5.77;;;;;;;;;;5022714;28;20491;-46
2023/08/11 14:15:25;;;;;;;6.10;5.80;;;;;;;;;;5020453;28;20433;-44
2023/08/11 14:17:54;;;;;;;6.80;6.30;;;;;;;;;;5022043;28;20439;-43
2023/08/11 14:20:22;;;;;;;5.13;4.93;;;;;;;;;;5021485;28;20460;-45
2023/08/11 14:22:50;;;;;;;5.47;5.07;;;;;;;;;;5020750;28;20450;-45
2023/08/11 14:25:17;;;;;;;4.97;4.67;;;;;;;;;;5022115;28;20437;-43
2023/08/11 14:27:45;;;;;;;4.70;4.50;;;;;;;;;;5021759;28;20468;-43
2023/08/11 14:30:12;;;;;;;5.03;4.77;;;;;;;;;;5021050;28;20468;-47
2023/08/11 14:32:40;;;;;;;4.30;3.90;;;;;;;;;;5013197;28;20531;-42